Anthony, Pennsylvania
Current Conditions -  °F | °C
As of 8:54 AM on Thursday 27 Nov 2014 (Local Time) from KIPT Reporting Station
Overcast Overcast  
Wind Chill: 26°   Ceiling: 4600
Heat Index: 32°   Visibility: 10mi
Dew Point: 29°   Wind: 7mph
Humidity: 88%   Direction: 270°W
Pressure: 30.04"   Gusts: NA
Location:  41.1183°N, 76.7254°W
Report Text: KIPT 271354Z 27006KT 10SM OVC046 00/M02 A3004 RMK AO2 SLP177 T00001017
Loading
Personal Weather Stations






























Interactive Weather Map New forecast layout! Learn more

10-Day Weather Forecast

Advertisements
Track Severe Weather on mobile